CheckWX is a tool to help pilots better visualize weather data.  It is not intended as a substitute for an official pre-flight weather briefing.

22:26:48 UTC

KHEF METAR
Manassas Regional / Harry P Davis Field Airport
Washington, Virginia, USA
Current

31 mins ago

KHEF 082156Z 35014KT 10SM CLR 24/11 A2961 RMK AO2 SLP029 T02440111
Observed
Apr-8 @ 21:56 UTC
Wind
  • 350° at 14 KTS
Visibility
Flight Rules
VFR
Cloud Levels
  • Clear skies
Temperature
24°C / 75°F
Dewpoint
11°C / 52°F
Humidity
44%
Altimeter
29.61" Hg
Pressure
1002.72 hPa
Previous

2 hours ago

KHEF 082056Z 34014G21KT 10SM CLR 26/12 A2959 RMK AO2 SLP024 T02560117 55002
Observed
Apr-8 @ 20:56 UTC
Wind
  • 340° at 14 KTS
  • Gusting to 21 KTS
Visibility
Flight Rules
VFR
Cloud Levels
  • Clear skies
Temperature
26°C / 79°F
Dewpoint
12°C / 54°F
Humidity
42%
Altimeter
29.59" Hg
Pressure
1002.02 hPa
Previous

3 hours ago

KHEF 081956Z 33010G17KT 10SM CLR 27/13 A2958 RMK AO2 SLP021 T02670128
Observed
Apr-8 @ 19:56 UTC
Wind
  • 330° at 10 KTS
  • Gusting to 17 KTS
Visibility
Flight Rules
VFR
Cloud Levels
  • Clear skies
Temperature
27°C / 81°F
Dewpoint
13°C / 55°F
Humidity
42%
Altimeter
29.58" Hg
Pressure
1001.72 hPa